sensor_id;sensor_type;location;lat;lon;timestamp;temperature;humidity
6865;DHT22;3471;49.678;8.388;2023-02-01T00:00:13;7.00;99.90
6865;DHT22;3471;49.678;8.388;2023-02-01T00:02:38;7.00;99.90
6865;DHT22;3471;49.678;8.388;2023-02-01T00:05:07;7.00;99.90
6865;DHT22;3471;49.678;8.388;2023-02-01T00:07:34;7.00;99.90
6865;DHT22;3471;49.678;8.388;2023-02-01T00:09:59;7.00;99.90
6865;DHT22;3471;49.678;8.388;2023-02-01T00:12:25;7.00;99.90
6865;DHT22;3471;49.678;8.388;2023-02-01T00:14:51;7.00;99.90
6865;DHT22;3471;49.678;8.388;2023-02-01T00:17:16;7.00;99.90
6865;DHT22;3471;49.678;8.388;2023-02-01T00:19:42;7.10;99.90
6865;DHT22;3471;49.678;8.388;2023-02-01T00:22:07;7.00;99.90
6865;DHT22;3471;49.678;8.388;2023-02-01T00:24:33;7.00;99.90
6865;DHT22;3471;49.678;8.388;2023-02-01T00:26:58;7.00;99.90
6865;DHT22;3471;49.678;8.388;2023-02-01T00:29:24;7.00;99.90
6865;DHT22;3471;49.678;8.388;2023-02-01T00:31:50;7.00;99.90
6865;DHT22;3471;49.678;8.388;2023-02-01T00:34:17;7.00;99.90
6865;DHT22;3471;49.678;8.388;2023-02-01T00:36:43;7.00;99.90
6865;DHT22;3471;49.678;8.388;2023-02-01T00:39:10;7.10;99.90
6865;DHT22;3471;49.678;8.388;2023-02-01T00:41:35;7.00;99.90
6865;DHT22;3471;49.678;8.388;2023-02-01T00:44:01;7.10;99.90
6865;DHT22;3471;49.678;8.388;2023-02-01T00:46:27;7.10;99.90
6865;DHT22;3471;49.678;8.388;2023-02-01T00:48:53;7.10;99.90
6865;DHT22;3471;49.678;8.388;2023-02-01T00:51:22;7.10;99.90
6865;DHT22;3471;49.678;8.388;2023-02-01T00:53:48;7.10;99.90
6865;DHT22;3471;49.678;8.388;2023-02-01T00:56:14;7.10;99.90
6865;DHT22;3471;49.678;8.388;2023-02-01T00:58:39;7.20;99.90
6865;DHT22;3471;49.678;8.388;2023-02-01T01:03:45;7.20;99.90
6865;DHT22;3471;49.678;8.388;2023-02-01T01:06:15;7.20;99.90
6865;DHT22;3471;49.678;8.388;2023-02-01T01:08:41;7.30;99.90
6865;DHT22;3471;49.678;8.388;2023-02-01T01:11:10;7.30;99.90
6865;DHT22;3471;49.678;8.388;2023-02-01T01:13:36;7.30;99.90
6865;DHT22;3471;49.678;8.388;2023-02-01T01:16:06;7.30;99.90
6865;DHT22;3471;49.678;8.388;2023-02-01T01:18:32;7.20;99.90
6865;DHT22;3471;49.678;8.388;2023-02-01T01:20:59;7.20;99.90
6865;DHT22;3471;49.678;8.388;2023-02-01T01:23:25;7.20;99.90
6865;DHT22;3471;49.678;8.388;2023-02-01T01:25:50;7.10;99.90
6865;DHT22;3471;49.678;8.388;2023-02-01T01:28:16;7.20;99.90
6865;DHT22;3471;49.678;8.388;2023-02-01T01:30:42;7.10;99.90
6865;DHT22;3471;49.678;8.388;2023-02-01T01:33:07;7.10;99.90
6865;DHT22;3471;49.678;8.388;2023-02-01T01:35:33;7.10;99.90
6865;DHT22;3471;49.678;8.388;2023-02-01T01:38:00;7.10;99.90
6865;DHT22;3471;49.678;8.388;2023-02-01T01:40:27;7.10;99.90
6865;DHT22;3471;49.678;8.388;2023-02-01T01:42:53;7.10;99.90
6865;DHT22;3471;49.678;8.388;2023-02-01T01:45:33;7.00;99.90
6865;DHT22;3471;49.678;8.388;2023-02-01T01:48:06;7.10;99.90
6865;DHT22;3471;49.678;8.388;2023-02-01T01:50:36;7.10;99.90
6865;DHT22;3471;49.678;8.388;2023-02-01T01:53:05;7.10;99.90
6865;DHT22;3471;49.678;8.388;2023-02-01T01:55:35;7.10;99.90
6865;DHT22;3471;49.678;8.388;2023-02-01T01:58:07;7.10;99.90
6865;DHT22;3471;49.678;8.388;2023-02-01T02:00:33;7.10;99.90
6865;DHT22;3471;49.678;8.388;2023-02-01T02:03:05;7.10;99.90
6865;DHT22;3471;49.678;8.388;2023-02-01T02:05:34;7.10;99.90
6865;DHT22;3471;49.678;8.388;2023-02-01T02:08:01;7.10;99.90
6865;DHT22;3471;49.678;8.388;2023-02-01T02:10:27;7.10;99.90
6865;DHT22;3471;49.678;8.388;2023-02-01T02:13:13;7.00;99.90
6865;DHT22;3471;49.678;8.388;2023-02-01T02:15:46;7.10;99.90
6865;DHT22;3471;49.678;8.388;2023-02-01T02:18:19;7.10;99.90
6865;DHT22;3471;49.678;8.388;2023-02-01T02:21:07;7.10;99.90
6865;DHT22;3471;49.678;8.388;2023-02-01T02:23:51;7.00;99.90
6865;DHT22;3471;49.678;8.388;2023-02-01T02:43:05;6.80;99.90
6865;DHT22;3471;49.678;8.388;2023-02-01T02:49:11;6.90;99.90
6865;DHT22;3471;49.678;8.388;2023-02-01T02:51:52;6.80;99.90
6865;DHT22;3471;49.678;8.388;2023-02-01T02:54:43;6.80;99.90
6865;DHT22;3471;49.678;8.388;2023-02-01T02:57:24;6.80;99.90
6865;DHT22;3471;49.678;8.388;2023-02-01T03:00:13;6.90;99.90
6865;DHT22;3471;49.678;8.388;2023-02-01T03:02:58;6.90;99.90
6865;DHT22;3471;49.678;8.388;2023-02-01T03:05:46;7.00;99.90
6865;DHT22;3471;49.678;8.388;2023-02-01T03:08:22;7.00;99.90
6865;DHT22;3471;49.678;8.388;2023-02-01T03:10:56;7.00;99.90
6865;DHT22;3471;49.678;8.388;2023-02-01T03:16:16;7.00;99.90
6865;DHT22;3471;49.678;8.388;2023-02-01T03:21:24;7.10;99.90
6865;DHT22;3471;49.678;8.388;2023-02-01T03:23:53;7.20;99.90
6865;DHT22;3471;49.678;8.388;2023-02-01T03:26:22;7.20;99.90
6865;DHT22;3471;49.678;8.388;2023-02-01T03:28:57;7.20;99.90
6865;DHT22;3471;49.678;8.388;2023-02-01T03:31:28;7.20;99.90
6865;DHT22;3471;49.678;8.388;2023-02-01T03:33:53;7.30;99.90
6865;DHT22;3471;49.678;8.388;2023-02-01T03:36:26;7.30;99.90
6865;DHT22;3471;49.678;8.388;2023-02-01T03:39:17;7.20;99.90
6865;DHT22;3471;49.678;8.388;2023-02-01T03:41:49;7.20;99.90
6865;DHT22;3471;49.678;8.388;2023-02-01T03:47:35;7.20;99.90
6865;DHT22;3471;49.678;8.388;2023-02-01T03:50:06;7.30;99.90
6865;DHT22;3471;49.678;8.388;2023-02-01T03:52:40;7.30;99.90
6865;DHT22;3471;49.678;8.388;2023-02-01T03:55:08;7.30;99.90
6865;DHT22;3471;49.678;8.388;2023-02-01T03:57:38;7.30;99.90
6865;DHT22;3471;49.678;8.388;2023-02-01T04:00:25;7.30;99.90
6865;DHT22;3471;49.678;8.388;2023-02-01T04:02:51;7.40;99.90
6865;DHT22;3471;49.678;8.388;2023-02-01T04:05:17;7.40;99.90
6865;DHT22;3471;49.678;8.388;2023-02-01T04:07:43;7.40;99.90
6865;DHT22;3471;49.678;8.388;2023-02-01T04:10:10;7.30;99.90
6865;DHT22;3471;49.678;8.388;2023-02-01T04:12:36;7.30;99.90
6865;DHT22;3471;49.678;8.388;2023-02-01T04:15:01;7.30;99.90
6865;DHT22;3471;49.678;8.388;2023-02-01T04:17:28;7.30;99.90
6865;DHT22;3471;49.678;8.388;2023-02-01T04:19:54;7.30;99.90
6865;DHT22;3471;49.678;8.388;2023-02-01T04:22:19;7.40;99.90
6865;DHT22;3471;49.678;8.388;2023-02-01T04:24:45;7.40;99.90
6865;DHT22;3471;49.678;8.388;2023-02-01T04:27:10;7.40;99.90
6865;DHT22;3471;49.678;8.388;2023-02-01T04:29:36;7.30;99.90
6865;DHT22;3471;49.678;8.388;2023-02-01T04:32:02;7.30;99.90
6865;DHT22;3471;49.678;8.388;2023-02-01T04:34:27;7.20;99.90
6865;DHT22;3471;49.678;8.388;2023-02-01T04:36:53;7.20;99.90
6865;DHT22;3471;49.678;8.388;2023-02-01T04:39:18;7.20;99.90
6865;DHT22;3471;49.678;8.388;2023-02-01T04:41:44;7.20;99.90
6865;DHT22;3471;49.678;8.388;2023-02-01T04:44:14;7.20;99.90
6865;DHT22;3471;49.678;8.388;2023-02-01T04:46:40;7.10;99.90
6865;DHT22;3471;49.678;8.388;2023-02-01T04:49:07;7.20;99.90
6865;DHT22;3471;49.678;8.388;2023-02-01T04:51:33;7.20;99.90
6865;DHT22;3471;49.678;8.388;2023-02-01T04:53:59;7.10;99.90
6865;DHT22;3471;49.678;8.388;2023-02-01T04:56:24;7.00;99.90
6865;DHT22;3471;49.678;8.388;2023-02-01T04:58:50;6.90;99.90
6865;DHT22;3471;49.678;8.388;2023-02-01T05:01:15;6.90;99.90
6865;DHT22;3471;49.678;8.388;2023-02-01T05:03:41;6.70;99.90
6865;DHT22;3471;49.678;8.388;2023-02-01T05:06:06;6.70;99.90
6865;DHT22;3471;49.678;8.388;2023-02-01T05:08:33;6.60;99.90
6865;DHT22;3471;49.678;8.388;2023-02-01T05:10:58;6.60;99.90
6865;DHT22;3471;49.678;8.388;2023-02-01T05:13:25;6.60;99.90
6865;DHT22;3471;49.678;8.388;2023-02-01T05:16:09;6.60;99.90
6865;DHT22;3471;49.678;8.388;2023-02-01T05:18:34;6.70;99.90
6865;DHT22;3471;49.678;8.388;2023-02-01T05:21:00;6.70;99.90
6865;DHT22;3471;49.678;8.388;2023-02-01T05:23:27;6.70;99.90
6865;DHT22;3471;49.678;8.388;2023-02-01T05:25:52;6.70;99.90
6865;DHT22;3471;49.678;8.388;2023-02-01T05:28:23;6.80;99.90
6865;DHT22;3471;49.678;8.388;2023-02-01T05:30:48;6.80;99.90
6865;DHT22;3471;49.678;8.388;2023-02-01T05:33:14;6.80;99.90
6865;DHT22;3471;49.678;8.388;2023-02-01T05:35:39;6.80;99.90
6865;DHT22;3471;49.678;8.388;2023-02-01T05:38:05;6.90;99.90
6865;DHT22;3471;49.678;8.388;2023-02-01T05:40:30;6.90;99.90
6865;DHT22;3471;49.678;8.388;2023-02-01T05:42:56;7.00;99.90
6865;DHT22;3471;49.678;8.388;2023-02-01T05:45:21;6.90;99.90
6865;DHT22;3471;49.678;8.388;2023-02-01T05:47:47;6.90;99.90
6865;DHT22;3471;49.678;8.388;2023-02-01T05:50:12;6.90;99.90
6865;DHT22;3471;49.678;8.388;2023-02-01T05:52:38;6.80;99.90
6865;DHT22;3471;49.678;8.388;2023-02-01T05:55:04;6.80;99.90
6865;DHT22;3471;49.678;8.388;2023-02-01T05:57:30;6.80;99.90
6865;DHT22;3471;49.678;8.388;2023-02-01T05:59:55;6.80;99.90
6865;DHT22;3471;49.678;8.388;2023-02-01T06:02:21;6.80;99.90
6865;DHT22;3471;49.678;8.388;2023-02-01T06:04:47;6.90;99.90
6865;DHT22;3471;49.678;8.388;2023-02-01T06:07:12;6.90;99.90
6865;DHT22;3471;49.678;8.388;2023-02-01T06:09:38;6.90;99.90
6865;DHT22;3471;49.678;8.388;2023-02-01T06:12:04;6.90;99.90
6865;DHT22;3471;49.678;8.388;2023-02-01T06:14:29;7.00;99.90
6865;DHT22;3471;49.678;8.388;2023-02-01T06:16:55;7.00;99.90
6865;DHT22;3471;49.678;8.388;2023-02-01T06:19:21;7.00;99.90
6865;DHT22;3471;49.678;8.388;2023-02-01T06:21:47;7.00;99.90
6865;DHT22;3471;49.678;8.388;2023-02-01T06:24:13;7.00;99.90
6865;DHT22;3471;49.678;8.388;2023-02-01T06:26:39;7.00;99.90
6865;DHT22;3471;49.678;8.388;2023-02-01T06:29:06;6.90;99.90
6865;DHT22;3471;49.678;8.388;2023-02-01T06:31:32;7.00;99.90
6865;DHT22;3471;49.678;8.388;2023-02-01T06:33:58;7.00;99.90
6865;DHT22;3471;49.678;8.388;2023-02-01T06:36:23;7.00;99.90
6865;DHT22;3471;49.678;8.388;2023-02-01T06:38:49;7.00;99.90
6865;DHT22;3471;49.678;8.388;2023-02-01T06:41:15;7.00;99.90
6865;DHT22;3471;49.678;8.388;2023-02-01T06:43:41;7.00;99.90
6865;DHT22;3471;49.678;8.388;2023-02-01T06:46:10;7.10;99.90
6865;DHT22;3471;49.678;8.388;2023-02-01T06:48:36;7.10;99.90
6865;DHT22;3471;49.678;8.388;2023-02-01T06:51:02;7.10;99.90
6865;DHT22;3471;49.678;8.388;2023-02-01T06:53:28;7.10;99.90
6865;DHT22;3471;49.678;8.388;2023-02-01T06:55:54;7.20;99.90
6865;DHT22;3471;49.678;8.388;2023-02-01T06:58:21;7.20;99.90
6865;DHT22;3471;49.678;8.388;2023-02-01T07:00:46;7.20;99.90
6865;DHT22;3471;49.678;8.388;2023-02-01T07:03:12;7.10;99.90
6865;DHT22;3471;49.678;8.388;2023-02-01T07:05:37;7.10;99.90
6865;DHT22;3471;49.678;8.388;2023-02-01T07:08:03;7.10;99.90
6865;DHT22;3471;49.678;8.388;2023-02-01T07:10:29;7.00;99.90
6865;DHT22;3471;49.678;8.388;2023-02-01T07:12:57;6.90;99.90
6865;DHT22;3471;49.678;8.388;2023-02-01T07:15:23;6.80;99.90
6865;DHT22;3471;49.678;8.388;2023-02-01T07:17:48;6.70;99.90
6865;DHT22;3471;49.678;8.388;2023-02-01T07:20:15;6.70;99.90
6865;DHT22;3471;49.678;8.388;2023-02-01T07:22:41;6.70;99.90
6865;DHT22;3471;49.678;8.388;2023-02-01T07:25:06;6.60;99.90
6865;DHT22;3471;49.678;8.388;2023-02-01T07:27:36;6.60;99.90
6865;DHT22;3471;49.678;8.388;2023-02-01T07:30:02;6.60;99.90
6865;DHT22;3471;49.678;8.388;2023-02-01T07:32:29;6.60;99.90
6865;DHT22;3471;49.678;8.388;2023-02-01T07:34:54;6.60;99.90
6865;DHT22;3471;49.678;8.388;2023-02-01T07:37:20;6.60;99.90
6865;DHT22;3471;49.678;8.388;2023-02-01T07:39:45;6.70;99.90
6865;DHT22;3471;49.678;8.388;2023-02-01T07:42:11;6.70;99.90
6865;DHT22;3471;49.678;8.388;2023-02-01T07:44:37;6.70;99.90
6865;DHT22;3471;49.678;8.388;2023-02-01T07:47:02;6.80;99.90
6865;DHT22;3471;49.678;8.388;2023-02-01T07:49:28;6.80;99.90
6865;DHT22;3471;49.678;8.388;2023-02-01T07:51:53;6.80;99.90
6865;DHT22;3471;49.678;8.388;2023-02-01T07:54:19;6.80;99.90
6865;DHT22;3471;49.678;8.388;2023-02-01T07:56:44;6.70;99.90
6865;DHT22;3471;49.678;8.388;2023-02-01T07:59:10;6.70;99.90
6865;DHT22;3471;49.678;8.388;2023-02-01T08:01:37;6.70;99.90
6865;DHT22;3471;49.678;8.388;2023-02-01T08:04:03;6.70;99.90
6865;DHT22;3471;49.678;8.388;2023-02-01T08:06:31;6.80;99.90
6865;DHT22;3471;49.678;8.388;2023-02-01T08:08:57;6.80;99.90
6865;DHT22;3471;49.678;8.388;2023-02-01T08:11:24;6.80;99.90
6865;DHT22;3471;49.678;8.388;2023-02-01T08:13:50;6.80;99.90
6865;DHT22;3471;49.678;8.388;2023-02-01T08:16:17;6.80;99.90
6865;DHT22;3471;49.678;8.388;2023-02-01T08:18:43;6.90;99.90
6865;DHT22;3471;49.678;8.388;2023-02-01T08:21:14;6.90;99.90
6865;DHT22;3471;49.678;8.388;2023-02-01T08:23:41;7.00;99.90
6865;DHT22;3471;49.678;8.388;2023-02-01T08:26:13;7.10;99.90
6865;DHT22;3471;49.678;8.388;2023-02-01T08:28:49;7.10;99.90
6865;DHT22;3471;49.678;8.388;2023-02-01T08:31:16;7.20;99.90
6865;DHT22;3471;49.678;8.388;2023-02-01T08:33:44;7.20;99.90
6865;DHT22;3471;49.678;8.388;2023-02-01T08:36:12;7.30;99.90
6865;DHT22;3471;49.678;8.388;2023-02-01T08:38:39;7.40;99.90
6865;DHT22;3471;49.678;8.388;2023-02-01T08:41:10;7.40;99.90
6865;DHT22;3471;49.678;8.388;2023-02-01T08:43:37;7.40;99.90
6865;DHT22;3471;49.678;8.388;2023-02-01T08:46:04;7.50;99.90
6865;DHT22;3471;49.678;8.388;2023-02-01T08:48:30;7.50;99.90
6865;DHT22;3471;49.678;8.388;2023-02-01T08:50:56;7.50;99.90
6865;DHT22;3471;49.678;8.388;2023-02-01T08:53:22;7.60;99.90
6865;DHT22;3471;49.678;8.388;2023-02-01T08:55:49;7.60;99.90
6865;DHT22;3471;49.678;8.388;2023-02-01T08:58:15;7.60;99.90
6865;DHT22;3471;49.678;8.388;2023-02-01T09:00:43;7.60;99.90
6865;DHT22;3471;49.678;8.388;2023-02-01T09:03:11;7.50;99.90
6865;DHT22;3471;49.678;8.388;2023-02-01T09:05:37;7.50;99.90
6865;DHT22;3471;49.678;8.388;2023-02-01T09:08:03;7.50;99.90
6865;DHT22;3471;49.678;8.388;2023-02-01T09:10:29;7.60;99.90
6865;DHT22;3471;49.678;8.388;2023-02-01T09:12:55;7.60;99.90
6865;DHT22;3471;49.678;8.388;2023-02-01T09:15:21;7.60;99.90
6865;DHT22;3471;49.678;8.388;2023-02-01T09:17:46;7.60;99.90
6865;DHT22;3471;49.678;8.388;2023-02-01T09:20:12;7.60;99.90
6865;DHT22;3471;49.678;8.388;2023-02-01T09:22:38;7.70;99.90
6865;DHT22;3471;49.678;8.388;2023-02-01T09:25:04;7.70;99.90
6865;DHT22;3471;49.678;8.388;2023-02-01T09:27:30;7.70;99.90
6865;DHT22;3471;49.678;8.388;2023-02-01T09:29:56;7.70;99.90
6865;DHT22;3471;49.678;8.388;2023-02-01T09:32:22;7.80;99.90
6865;DHT22;3471;49.678;8.388;2023-02-01T09:34:49;7.80;99.90
6865;DHT22;3471;49.678;8.388;2023-02-01T09:37:15;7.80;99.90
6865;DHT22;3471;49.678;8.388;2023-02-01T09:39:41;7.90;99.90
6865;DHT22;3471;49.678;8.388;2023-02-01T09:47:32;7.90;99.90
6865;DHT22;3471;49.678;8.388;2023-02-01T09:52:48;8.00;99.90
6865;DHT22;3471;49.678;8.388;2023-02-01T09:55:20;8.00;99.90
6865;DHT22;3471;49.678;8.388;2023-02-01T09:57:52;8.00;99.90
6865;DHT22;3471;49.678;8.388;2023-02-01T10:00:24;8.00;99.90
6865;DHT22;3471;49.678;8.388;2023-02-01T10:02:51;8.00;99.90
6865;DHT22;3471;49.678;8.388;2023-02-01T10:05:30;7.90;99.90
6865;DHT22;3471;49.678;8.388;2023-02-01T10:08:24;7.90;99.90
6865;DHT22;3471;49.678;8.388;2023-02-01T10:10:52;7.90;99.90
6865;DHT22;3471;49.678;8.388;2023-02-01T10:13:31;7.90;99.90
6865;DHT22;3471;49.678;8.388;2023-02-01T10:18:51;7.90;99.90
6865;DHT22;3471;49.678;8.388;2023-02-01T10:29:45;7.90;99.90
6865;DHT22;3471;49.678;8.388;2023-02-01T10:32:21;8.00;99.90
6865;DHT22;3471;49.678;8.388;2023-02-01T10:34:57;8.10;99.90
6865;DHT22;3471;49.678;8.388;2023-02-01T10:37:33;8.20;99.90
6865;DHT22;3471;49.678;8.388;2023-02-01T10:40:15;8.20;99.90
6865;DHT22;3471;49.678;8.388;2023-02-01T10:42:41;8.30;99.90
6865;DHT22;3471;49.678;8.388;2023-02-01T10:45:11;8.30;99.90
6865;DHT22;3471;49.678;8.388;2023-02-01T10:47:37;8.50;99.90
6865;DHT22;3471;49.678;8.388;2023-02-01T10:52:45;8.60;99.90
6865;DHT22;3471;49.678;8.388;2023-02-01T10:58:02;8.70;99.90
6865;DHT22;3471;49.678;8.388;2023-02-01T11:00:39;8.80;99.90
6865;DHT22;3471;49.678;8.388;2023-02-01T11:06:22;8.80;99.90
6865;DHT22;3471;49.678;8.388;2023-02-01T11:08:50;8.90;99.90
6865;DHT22;3471;49.678;8.388;2023-02-01T11:11:17;8.80;99.90
6865;DHT22;3471;49.678;8.388;2023-02-01T11:13:43;8.80;99.90
6865;DHT22;3471;49.678;8.388;2023-02-01T11:16:13;8.80;99.90
6865;DHT22;3471;49.678;8.388;2023-02-01T11:18:40;8.70;99.90
6865;DHT22;3471;49.678;8.388;2023-02-01T11:21:07;8.60;99.90
6865;DHT22;3471;49.678;8.388;2023-02-01T11:23:33;8.50;99.90
6865;DHT22;3471;49.678;8.388;2023-02-01T11:28:50;8.50;99.90
6865;DHT22;3471;49.678;8.388;2023-02-01T11:31:16;8.40;99.90
6865;DHT22;3471;49.678;8.388;2023-02-01T11:33:58;8.40;99.90
6865;DHT22;3471;49.678;8.388;2023-02-01T11:36:27;8.40;99.90
6865;DHT22;3471;49.678;8.388;2023-02-01T11:42:04;8.20;99.90
6865;DHT22;3471;49.678;8.388;2023-02-01T11:44:39;8.20;99.90
6865;DHT22;3471;49.678;8.388;2023-02-01T11:47:29;8.20;99.90
6865;DHT22;3471;49.678;8.388;2023-02-01T11:50:01;8.20;99.90
6865;DHT22;3471;49.678;8.388;2023-02-01T11:58:25;8.20;99.90
6865;DHT22;3471;49.678;8.388;2023-02-01T12:06:47;8.20;99.90
6865;DHT22;3471;49.678;8.388;2023-02-01T12:09:34;8.20;99.90
6865;DHT22;3471;49.678;8.388;2023-02-01T12:12:39;8.20;99.90
6865;DHT22;3471;49.678;8.388;2023-02-01T12:21:35;8.20;99.90
6865;DHT22;3471;49.678;8.388;2023-02-01T12:27:15;8.10;99.90
6865;DHT22;3471;49.678;8.388;2023-02-01T12:35:15;8.00;99.90
6865;DHT22;3471;49.678;8.388;2023-02-01T12:46:19;7.90;99.90
6865;DHT22;3471;49.678;8.388;2023-02-01T12:51:31;8.00;99.90
6865;DHT22;3471;49.678;8.388;2023-02-01T12:54:31;8.00;99.90
6865;DHT22;3471;49.678;8.388;2023-02-01T12:57:04;8.20;99.90
6865;DHT22;3471;49.678;8.388;2023-02-01T12:59:52;8.20;99.90
6865;DHT22;3471;49.678;8.388;2023-02-01T13:03:13;8.30;99.90
6865;DHT22;3471;49.678;8.388;2023-02-01T13:05:51;8.40;99.90
6865;DHT22;3471;49.678;8.388;2023-02-01T13:08:25;8.50;99.90
6865;DHT22;3471;49.678;8.388;2023-02-01T13:10:58;8.70;99.90
6865;DHT22;3471;49.678;8.388;2023-02-01T13:13:45;8.80;99.90
6865;DHT22;3471;49.678;8.388;2023-02-01T13:16:34;9.00;99.90
6865;DHT22;3471;49.678;8.388;2023-02-01T13:19:13;9.20;99.90
6865;DHT22;3471;49.678;8.388;2023-02-01T13:21:46;9.20;99.90
6865;DHT22;3471;49.678;8.388;2023-02-01T13:24:50;9.10;99.90
6865;DHT22;3471;49.678;8.388;2023-02-01T13:27:14;8.90;99.90
6865;DHT22;3471;49.678;8.388;2023-02-01T13:29:55;8.70;99.90
6865;DHT22;3471;49.678;8.388;2023-02-01T13:38:10;8.40;99.90
6865;DHT22;3471;49.678;8.388;2023-02-01T13:41:15;8.40;99.90
6865;DHT22;3471;49.678;8.388;2023-02-01T13:43:48;8.30;99.90
6865;DHT22;3471;49.678;8.388;2023-02-01T13:46:15;8.30;99.90
6865;DHT22;3471;49.678;8.388;2023-02-01T13:51:13;8.30;99.90
6865;DHT22;3471;49.678;8.388;2023-02-01T13:53:46;8.40;99.90
6865;DHT22;3471;49.678;8.388;2023-02-01T13:56:16;8.40;99.90
6865;DHT22;3471;49.678;8.388;2023-02-01T13:58:44;8.70;99.90
6865;DHT22;3471;49.678;8.388;2023-02-01T14:03:57;9.20;99.90
6865;DHT22;3471;49.678;8.388;2023-02-01T14:11:44;9.40;99.90
6865;DHT22;3471;49.678;8.388;2023-02-01T14:19:30;11.20;99.90
6865;DHT22;3471;49.678;8.388;2023-02-01T14:24:53;12.00;99.90
6865;DHT22;3471;49.678;8.388;2023-02-01T14:27:28;12.00;99.90
6865;DHT22;3471;49.678;8.388;2023-02-01T14:29:58;11.50;99.90
6865;DHT22;3471;49.678;8.388;2023-02-01T14:32:30;11.00;99.90
6865;DHT22;3471;49.678;8.388;2023-02-01T14:34:59;10.60;99.90
6865;DHT22;3471;49.678;8.388;2023-02-01T14:37:31;10.30;99.90
6865;DHT22;3471;49.678;8.388;2023-02-01T14:42:48;9.80;99.90
6865;DHT22;3471;49.678;8.388;2023-02-01T14:47:53;10.00;99.90
6865;DHT22;3471;49.678;8.388;2023-02-01T15:00:47;11.40;99.90
6865;DHT22;3471;49.678;8.388;2023-02-01T15:05:54;10.40;99.90
6865;DHT22;3471;49.678;8.388;2023-02-01T15:08:25;10.20;99.90
6865;DHT22;3471;49.678;8.388;2023-02-01T15:10:52;9.90;99.90
6865;DHT22;3471;49.678;8.388;2023-02-01T15:13:24;9.60;99.90
6865;DHT22;3471;49.678;8.388;2023-02-01T15:16:02;9.50;99.90
6865;DHT22;3471;49.678;8.388;2023-02-01T15:18:27;9.30;99.90
6865;DHT22;3471;49.678;8.388;2023-02-01T15:20:58;9.10;99.90
6865;DHT22;3471;49.678;8.388;2023-02-01T15:23:24;9.10;99.90
6865;DHT22;3471;49.678;8.388;2023-02-01T15:25:49;9.10;99.90
6865;DHT22;3471;49.678;8.388;2023-02-01T15:28:16;9.30;99.90
6865;DHT22;3471;49.678;8.388;2023-02-01T15:31:04;9.40;99.90
6865;DHT22;3471;49.678;8.388;2023-02-01T15:33:31;9.60;99.90
6865;DHT22;3471;49.678;8.388;2023-02-01T15:38:38;9.80;99.90
6865;DHT22;3471;49.678;8.388;2023-02-01T15:46:29;9.40;99.90
6865;DHT22;3471;49.678;8.388;2023-02-01T15:48:56;9.20;99.90
6865;DHT22;3471;49.678;8.388;2023-02-01T15:51:26;9.10;99.90
6865;DHT22;3471;49.678;8.388;2023-02-01T15:54:04;9.00;99.90
6865;DHT22;3471;49.678;8.388;2023-02-01T15:56:38;8.80;99.90
6865;DHT22;3471;49.678;8.388;2023-02-01T15:59:19;8.70;99.90
6865;DHT22;3471;49.678;8.388;2023-02-01T16:01:46;8.60;99.90
6865;DHT22;3471;49.678;8.388;2023-02-01T16:04:19;8.50;99.90
6865;DHT22;3471;49.678;8.388;2023-02-01T16:06:57;8.50;99.90
6865;DHT22;3471;49.678;8.388;2023-02-01T16:09:25;8.40;99.90
6865;DHT22;3471;49.678;8.388;2023-02-01T16:12:01;8.40;99.90
6865;DHT22;3471;49.678;8.388;2023-02-01T16:14:28;8.30;99.90
6865;DHT22;3471;49.678;8.388;2023-02-01T16:16:56;8.20;99.90
6865;DHT22;3471;49.678;8.388;2023-02-01T16:19:22;8.20;99.90
6865;DHT22;3471;49.678;8.388;2023-02-01T16:21:53;8.10;99.90
6865;DHT22;3471;49.678;8.388;2023-02-01T16:24:19;8.10;99.90
6865;DHT22;3471;49.678;8.388;2023-02-01T16:26:47;8.10;99.90
6865;DHT22;3471;49.678;8.388;2023-02-01T16:29:12;8.10;99.90
6865;DHT22;3471;49.678;8.388;2023-02-01T16:31:40;8.00;99.90
6865;DHT22;3471;49.678;8.388;2023-02-01T16:34:12;7.90;99.90
6865;DHT22;3471;49.678;8.388;2023-02-01T16:36:38;7.90;99.90
6865;DHT22;3471;49.678;8.388;2023-02-01T16:39:04;7.80;99.90
6865;DHT22;3471;49.678;8.388;2023-02-01T16:41:29;7.80;99.90
6865;DHT22;3471;49.678;8.388;2023-02-01T16:43:55;7.80;99.90
6865;DHT22;3471;49.678;8.388;2023-02-01T16:46:24;7.80;99.90
6865;DHT22;3471;49.678;8.388;2023-02-01T16:49:00;7.80;99.90
6865;DHT22;3471;49.678;8.388;2023-02-01T16:51:28;7.80;99.90
6865;DHT22;3471;49.678;8.388;2023-02-01T16:53:57;7.80;99.90
6865;DHT22;3471;49.678;8.388;2023-02-01T16:56:33;7.80;99.90
6865;DHT22;3471;49.678;8.388;2023-02-01T16:58:59;7.80;99.90
6865;DHT22;3471;49.678;8.388;2023-02-01T17:01:25;7.80;99.90
6865;DHT22;3471;49.678;8.388;2023-02-01T17:03:51;7.70;99.90
6865;DHT22;3471;49.678;8.388;2023-02-01T17:06:22;7.70;99.90
6865;DHT22;3471;49.678;8.388;2023-02-01T17:08:56;7.70;99.90
6865;DHT22;3471;49.678;8.388;2023-02-01T17:11:23;7.60;99.90
6865;DHT22;3471;49.678;8.388;2023-02-01T17:13:49;7.60;99.90
6865;DHT22;3471;49.678;8.388;2023-02-01T17:18:47;7.60;99.90
6865;DHT22;3471;49.678;8.388;2023-02-01T17:21:15;7.60;99.90
6865;DHT22;3471;49.678;8.388;2023-02-01T17:23:41;7.60;99.90
6865;DHT22;3471;49.678;8.388;2023-02-01T17:26:09;7.60;99.90
6865;DHT22;3471;49.678;8.388;2023-02-01T17:28:35;7.60;99.90
6865;DHT22;3471;49.678;8.388;2023-02-01T17:31:00;7.50;99.90
6865;DHT22;3471;49.678;8.388;2023-02-01T17:33:30;7.50;99.90
6865;DHT22;3471;49.678;8.388;2023-02-01T17:35:56;7.40;99.90
6865;DHT22;3471;49.678;8.388;2023-02-01T17:38:23;7.40;99.90
6865;DHT22;3471;49.678;8.388;2023-02-01T17:40:49;7.40;99.90
6865;DHT22;3471;49.678;8.388;2023-02-01T17:43:18;7.40;99.90
6865;DHT22;3471;49.678;8.388;2023-02-01T17:45:49;7.40;99.90
6865;DHT22;3471;49.678;8.388;2023-02-01T17:48:18;7.40;99.90
6865;DHT22;3471;49.678;8.388;2023-02-01T17:50:45;7.30;99.90
6865;DHT22;3471;49.678;8.388;2023-02-01T17:53:12;7.30;99.90
6865;DHT22;3471;49.678;8.388;2023-02-01T17:55:41;7.30;99.90
6865;DHT22;3471;49.678;8.388;2023-02-01T17:58:12;7.30;99.90
6865;DHT22;3471;49.678;8.388;2023-02-01T18:00:39;7.20;99.90
6865;DHT22;3471;49.678;8.388;2023-02-01T18:03:06;7.20;99.90
6865;DHT22;3471;49.678;8.388;2023-02-01T18:05:38;7.10;99.90
6865;DHT22;3471;49.678;8.388;2023-02-01T18:08:06;7.10;99.90
6865;DHT22;3471;49.678;8.388;2023-02-01T18:10:32;7.10;99.90
6865;DHT22;3471;49.678;8.388;2023-02-01T18:12:58;7.10;99.90
6865;DHT22;3471;49.678;8.388;2023-02-01T18:15:24;7.10;99.90
6865;DHT22;3471;49.678;8.388;2023-02-01T18:17:50;7.10;99.90
6865;DHT22;3471;49.678;8.388;2023-02-01T18:20:21;7.10;99.90
6865;DHT22;3471;49.678;8.388;2023-02-01T18:22:47;7.20;99.90
6865;DHT22;3471;49.678;8.388;2023-02-01T18:25:17;7.20;99.90
6865;DHT22;3471;49.678;8.388;2023-02-01T18:27:45;7.10;99.90
6865;DHT22;3471;49.678;8.388;2023-02-01T18:30:11;7.10;99.90
6865;DHT22;3471;49.678;8.388;2023-02-01T18:32:37;7.10;99.90
6865;DHT22;3471;49.678;8.388;2023-02-01T18:35:15;7.10;99.90
6865;DHT22;3471;49.678;8.388;2023-02-01T18:37:41;7.10;99.90
6865;DHT22;3471;49.678;8.388;2023-02-01T18:40:12;7.00;99.90
6865;DHT22;3471;49.678;8.388;2023-02-01T18:42:37;7.00;99.90
6865;DHT22;3471;49.678;8.388;2023-02-01T18:45:03;7.00;99.90
6865;DHT22;3471;49.678;8.388;2023-02-01T18:47:29;7.00;99.90
6865;DHT22;3471;49.678;8.388;2023-02-01T18:49:54;7.00;99.90
6865;DHT22;3471;49.678;8.388;2023-02-01T18:52:20;7.00;99.90
6865;DHT22;3471;49.678;8.388;2023-02-01T18:54:45;7.00;99.90
6865;DHT22;3471;49.678;8.388;2023-02-01T18:57:11;7.00;99.90
6865;DHT22;3471;49.678;8.388;2023-02-01T18:59:39;7.00;99.90
6865;DHT22;3471;49.678;8.388;2023-02-01T19:02:05;7.00;99.90
6865;DHT22;3471;49.678;8.388;2023-02-01T19:04:31;6.90;99.90
6865;DHT22;3471;49.678;8.388;2023-02-01T19:06:57;6.90;99.90